Time;durP1;ratioP1;P1;durP2;ratioP2;P2;SDS_P1;SDS_P2;PMS_P1;PMS_P2;Temp;Humidity;BMP_temperature;BMP_pressure;BME280_temperature;BME280_humidity;BME280_pressure;Samples;Min_cycle;Max_cycle;Signal;HPM_P1;HPM_P2
2021/10/16 00:02:16;;;;;;;7.75;1.20;;;5.00;99.90;;;;;;5051818;28;20040;-47
2021/10/16 00:04:42;;;;;;;10.55;1.58;;;4.90;99.90;;;;;;5053038;28;20122;-52
2021/10/16 00:07:07;;;;;;;6.40;1.30;;;4.90;99.90;;;;;;5065171;28;20055;-51
2021/10/16 00:09:33;;;;;;;8.35;1.15;;;4.90;99.90;;;;;;5071253;28;20040;-47
2021/10/16 00:11:58;;;;;;;18.33;1.52;;;4.80;99.90;;;;;;5054367;28;20017;-50
2021/10/16 00:14:24;;;;;;;10.15;1.23;;;4.80;99.90;;;;;;5059002;28;20021;-51
2021/10/16 00:16:50;;;;;;;5.47;1.52;;;4.80;99.90;;;;;;5051262;28;20060;-51
2021/10/16 00:19:15;;;;;;;8.55;1.55;;;4.70;99.90;;;;;;5058242;28;20068;-47
2021/10/16 00:21:41;;;;;;;4.57;1.20;;;4.70;99.90;;;;;;5054635;28;20029;-48
2021/10/16 00:24:06;;;;;;;4.10;1.00;;;4.60;99.90;;;;;;5050966;28;20021;-54
2021/10/16 00:26:33;;;;;;;3.05;1.20;;;4.60;99.90;;;;;;5054493;28;20032;-48
2021/10/16 00:28:58;;;;;;;8.05;1.20;;;4.60;99.90;;;;;;5062725;28;20028;-49
2021/10/16 00:31:24;;;;;;;6.47;1.10;;;4.50;99.90;;;;;;5061119;28;20045;-52
2021/10/16 00:33:49;;;;;;;9.05;1.35;;;4.40;99.90;;;;;;5056773;28;20040;-49
2021/10/16 00:36:15;;;;;;;8.52;1.35;;;4.40;99.90;;;;;;5059226;28;20033;-48
2021/10/16 00:38:40;;;;;;;8.02;1.40;;;4.40;99.90;;;;;;5059994;28;20112;-48
2021/10/16 00:41:06;;;;;;;9.48;1.52;;;4.30;99.90;;;;;;5057294;28;20447;-48
2021/10/16 00:43:31;;;;;;;6.50;1.38;;;4.30;99.90;;;;;;5061860;28;20110;-46
2021/10/16 00:45:57;;;;;;;10.00;1.40;;;4.20;99.90;;;;;;5052350;28;20029;-47
2021/10/16 00:48:23;;;;;;;4.82;1.13;;;4.20;99.90;;;;;;5052141;28;20025;-49
2021/10/16 00:50:48;;;;;;;6.85;1.80;;;4.20;99.90;;;;;;5052347;28;20104;-49
2021/10/16 00:53:15;;;;;;;6.82;1.38;;;4.10;99.90;;;;;;5052435;28;20025;-47
2021/10/16 00:55:41;;;;;;;9.27;1.52;;;4.10;99.90;;;;;;5056129;28;20017;-52
2021/10/16 00:58:07;;;;;;;9.85;1.05;;;4.10;99.90;;;;;;5054717;28;20108;-49
2021/10/16 01:00:33;;;;;;;8.00;1.45;;;4.00;99.90;;;;;;5055844;28;20027;-49
2021/10/16 01:03:01;;;;;;;5.90;1.15;;;4.00;99.90;;;;;;5056841;28;20108;-46
2021/10/16 01:05:27;;;;;;;5.22;1.33;;;4.00;99.90;;;;;;5063527;28;20028;-46
2021/10/16 01:07:52;;;;;;;2.58;1.25;;;3.90;99.90;;;;;;5063357;28;20377;-50
2021/10/16 01:10:18;;;;;;;6.45;1.27;;;3.90;99.90;;;;;;5064564;28;20032;-48
2021/10/16 01:12:44;;;;;;;6.85;1.40;;;3.80;99.90;;;;;;5062519;28;20029;-49
2021/10/16 01:15:16;;;;;;;6.80;1.55;;;3.80;99.90;;;;;;5064229;28;20064;-49
2021/10/16 01:17:45;;;;;;;4.75;1.05;;;3.80;99.90;;;;;;5066807;28;20115;-48
2021/10/16 01:20:15;;;;;;;4.00;1.10;;;3.70;99.90;;;;;;5065516;28;20047;-52
2021/10/16 01:22:43;;;;;;;3.60;1.10;;;3.70;99.90;;;;;;5063359;28;20068;-46
2021/10/16 01:25:14;;;;;;;6.80;1.98;;;3.70;99.90;;;;;;5063817;28;20036;-46
2021/10/16 01:27:40;;;;;;;2.40;1.17;;;3.70;99.90;;;;;;5056004;28;20510;-49
2021/10/16 01:30:09;;;;;;;5.07;1.05;;;3.60;99.90;;;;;;5063339;28;20044;-49
2021/10/16 01:32:35;;;;;;;5.32;1.23;;;3.60;99.90;;;;;;5062591;28;20029;-45
2021/10/16 01:35:05;;;;;;;7.70;1.92;;;3.60;99.90;;;;;;5059819;28;20017;-49
2021/10/16 01:37:31;;;;;;;6.75;1.30;;;3.50;99.90;;;;;;5058067;28;20035;-47
2021/10/16 01:39:57;;;;;;;4.95;1.30;;;3.50;99.90;;;;;;5056101;28;20048;-48
2021/10/16 01:42:22;;;;;;;6.35;1.23;;;3.50;99.90;;;;;;5054307;28;20079;-48
2021/10/16 01:44:48;;;;;;;5.25;1.08;;;3.40;99.90;;;;;;5061386;28;20453;-47
2021/10/16 01:47:13;;;;;;;5.85;1.50;;;3.40;99.90;;;;;;5064498;28;20479;-48
2021/10/16 01:49:39;;;;;;;5.35;1.40;;;3.40;99.90;;;;;;5062834;28;20415;-46
2021/10/16 01:52:05;;;;;;;5.20;1.30;;;3.40;99.90;;;;;;5069443;28;20024;-50
2021/10/16 01:54:31;;;;;;;8.07;1.60;;;3.40;99.90;;;;;;5060889;28;20025;-50
2021/10/16 01:56:57;;;;;;;6.93;1.45;;;3.40;99.90;;;;;;5061831;28;20044;-48
2021/10/16 01:59:25;;;;;;;3.00;0.98;;;3.40;99.90;;;;;;5065176;28;20025;-47
2021/10/16 02:01:52;;;;;;;6.50;1.40;;;3.40;99.90;;;;;;5066145;28;20044;-48
2021/10/16 02:04:18;;;;;;;6.63;1.48;;;3.40;99.90;;;;;;5063541;28;20074;-47
2021/10/16 02:06:43;;;;;;;11.05;2.08;;;3.40;99.90;;;;;;5062319;28;20049;-49
2021/10/16 02:09:10;;;;;;;9.88;1.80;;;3.50;99.90;;;;;;5063000;28;20029;-48
2021/10/16 02:11:36;;;;;;;8.77;2.55;;;3.50;99.90;;;;;;5064979;28;20115;-49
2021/10/16 02:14:03;;;;;;;6.68;1.30;;;3.50;99.90;;;;;;5063749;28;20028;-46
2021/10/16 02:16:29;;;;;;;4.78;2.08;;;3.50;99.90;;;;;;5062290;28;20025;-50
2021/10/16 02:18:54;;;;;;;4.85;1.27;;;3.50;99.90;;;;;;5062273;28;20197;-48
2021/10/16 02:21:22;;;;;;;5.85;1.20;;;3.50;99.90;;;;;;5064448;28;20025;-48
2021/10/16 02:23:47;;;;;;;3.13;1.10;;;3.60;99.90;;;;;;5066285;28;20392;-47
2021/10/16 02:26:13;;;;;;;7.82;1.35;;;3.60;99.90;;;;;;5062372;28;20029;-47
2021/10/16 02:28:38;;;;;;;7.57;1.50;;;3.50;99.90;;;;;;5065695;28;20040;-52
2021/10/16 02:31:04;;;;;;;7.13;1.52;;;3.50;99.90;;;;;;5068819;28;20080;-48
2021/10/16 02:33:29;;;;;;;6.60;1.77;;;3.50;99.90;;;;;;5062340;28;20100;-49
2021/10/16 02:35:55;;;;;;;4.72;1.40;;;3.50;99.90;;;;;;5062047;28;20044;-50
2021/10/16 02:38:20;;;;;;;12.00;1.48;;;3.50;99.90;;;;;;5063872;28;20033;-48
2021/10/16 02:40:46;;;;;;;7.93;1.17;;;3.40;99.90;;;;;;5064834;28;20471;-53
2021/10/16 02:43:12;;;;;;;10.00;2.05;;;3.40;99.90;;;;;;5063402;28;20427;-50
2021/10/16 02:45:37;;;;;;;7.13;1.40;;;3.40;99.90;;;;;;5061848;28;20051;-50
2021/10/16 02:48:03;;;;;;;6.32;1.17;;;3.30;99.90;;;;;;5061595;28;20033;-52
2021/10/16 02:50:28;;;;;;;7.10;1.23;;;3.30;99.90;;;;;;5065022;28;20052;-50
2021/10/16 02:52:54;;;;;;;3.03;0.98;;;3.30;99.90;;;;;;5065003;28;20064;-50
2021/10/16 02:55:19;;;;;;;3.17;0.70;;;3.30;99.90;;;;;;5063421;28;20021;-51
2021/10/16 02:57:45;;;;;;;14.05;1.58;;;3.30;99.90;;;;;;5064089;28;20479;-46
2021/10/16 03:00:11;;;;;;;5.43;1.30;;;3.20;99.90;;;;;;5063580;28;20043;-50
2021/10/16 03:02:37;;;;;;;7.07;1.58;;;3.20;99.90;;;;;;5062441;28;20103;-51
2021/10/16 03:05:03;;;;;;;8.60;1.60;;;3.20;99.90;;;;;;5057881;28;20036;-52
2021/10/16 03:07:29;;;;;;;3.45;1.17;;;3.20;99.90;;;;;;5053478;28;20099;-54
2021/10/16 03:09:55;;;;;;;8.68;1.38;;;3.20;99.90;;;;;;5061226;28;20025;-48
2021/10/16 03:12:20;;;;;;;7.53;1.60;;;3.20;99.90;;;;;;5062532;28;20029;-49
2021/10/16 03:14:46;;;;;;;6.32;1.30;;;3.20;99.90;;;;;;5065465;28;20051;-52
2021/10/16 03:17:11;;;;;;;6.28;1.20;;;3.10;99.90;;;;;;5067273;28;20038;-50
2021/10/16 03:19:37;;;;;;;6.50;0.95;;;3.10;99.90;;;;;;5061063;28;20427;-48
2021/10/16 03:22:03;;;;;;;8.05;1.60;;;3.20;99.90;;;;;;5043918;28;20087;-50
2021/10/16 03:24:28;;;;;;;2.95;1.10;;;3.10;99.90;;;;;;5041008;28;20038;-46
2021/10/16 03:26:54;;;;;;;7.22;1.27;;;3.20;99.90;;;;;;5040018;28;20040;-48
2021/10/16 03:29:19;;;;;;;5.63;1.70;;;3.20;99.90;;;;;;5043148;28;20028;-51
2021/10/16 03:31:45;;;;;;;7.40;1.40;;;3.20;99.90;;;;;;5044385;28;20033;-47
2021/10/16 03:34:12;;;;;;;10.38;1.30;;;3.30;99.90;;;;;;5043050;28;20036;-52
2021/10/16 03:36:38;;;;;;;8.98;1.60;;;3.20;99.90;;;;;;5044299;28;20032;-48
2021/10/16 03:39:03;;;;;;;6.68;1.42;;;3.20;99.90;;;;;;5041883;28;20549;-48
2021/10/16 03:41:29;;;;;;;6.43;1.25;;;3.20;99.90;;;;;;5039972;28;20083;-48
2021/10/16 03:43:54;;;;;;;7.57;1.58;;;3.20;99.90;;;;;;5040822;28;20036;-47
2021/10/16 03:46:20;;;;;;;2.60;1.15;;;3.20;99.90;;;;;;5042838;28;20029;-51
2021/10/16 03:48:45;;;;;;;7.22;1.25;;;3.20;99.90;;;;;;5044090;28;20033;-50
2021/10/16 03:51:11;;;;;;;17.50;3.35;;;3.10;99.90;;;;;;5042538;28;20036;-48
2021/10/16 03:53:37;;;;;;;3.20;1.20;;;3.10;99.90;;;;;;5040724;28;20025;-49
2021/10/16 03:56:03;;;;;;;5.82;1.35;;;3.10;99.90;;;;;;5039689;28;20038;-50
2021/10/16 03:58:28;;;;;;;6.70;1.30;;;3.10;99.90;;;;;;5043913;28;20090;-46
2021/10/16 04:00:59;;;;;;;6.03;1.45;;;3.10;99.90;;;;;;5044210;28;20029;-50
2021/10/16 04:03:25;;;;;;;6.82;1.80;;;3.20;99.90;;;;;;5058791;28;20021;-51
2021/10/16 04:05:50;;;;;;;7.18;1.35;;;3.30;99.90;;;;;;5060379;28;20033;-51
2021/10/16 04:08:16;;;;;;;10.35;1.83;;;3.40;99.90;;;;;;5061838;28;20044;-46
2021/10/16 04:10:41;;;;;;;11.90;1.73;;;3.50;99.90;;;;;;5061923;28;20038;-48
2021/10/16 04:13:07;;;;;;;3.90;1.60;;;3.50;99.90;;;;;;5062394;28;20025;-47
2021/10/16 04:15:32;;;;;;;7.97;1.80;;;3.60;99.90;;;;;;5060412;28;20033;-45
2021/10/16 04:17:58;;;;;;;1.95;1.10;;;3.70;99.90;;;;;;5060346;28;20143;-47
2021/10/16 04:20:23;;;;;;;9.48;1.65;;;3.70;99.90;;;;;;5062965;28;20085;-50
2021/10/16 04:22:49;;;;;;;5.15;1.58;;;3.80;99.90;;;;;;5063788;28;20029;-47
2021/10/16 04:25:15;;;;;;;4.53;1.67;;;3.90;99.90;;;;;;5061969;28;20081;-51
2021/10/16 04:27:40;;;;;;;6.95;1.73;;;4.00;99.90;;;;;;5059241;28;20056;-48
2021/10/16 04:30:06;;;;;;;9.27;1.50;;;4.10;99.90;;;;;;5068466;28;20108;-46
2021/10/16 04:32:35;;;;;;;7.60;1.85;;;4.10;99.90;;;;;;5064383;28;20392;-49
2021/10/16 04:35:05;;;;;;;8.63;1.70;;;4.20;99.90;;;;;;5070615;28;20027;-47
2021/10/16 04:37:30;;;;;;;6.00;1.83;;;4.30;99.90;;;;;;5056733;28;20068;-48
2021/10/16 04:39:56;;;;;;;5.72;1.70;;;4.30;99.90;;;;;;5064122;28;20049;-48
2021/10/16 04:42:21;;;;;;;9.57;1.90;;;4.40;99.90;;;;;;5065507;28;20029;-50
2021/10/16 04:44:47;;;;;;;13.73;2.00;;;4.50;99.90;;;;;;5068161;28;20060;-47
2021/10/16 04:47:12;;;;;;;7.55;2.03;;;4.50;99.90;;;;;;5065050;28;20040;-47
2021/10/16 04:49:38;;;;;;;6.82;1.58;;;4.60;99.90;;;;;;5067410;28;20060;-50
2021/10/16 04:52:05;;;;;;;5.90;1.67;;;4.60;99.90;;;;;;5066830;28;20025;-52
2021/10/16 04:54:31;;;;;;;12.32;2.25;;;4.70;99.90;;;;;;5063880;28;20033;-46
2021/10/16 04:56:56;;;;;;;5.10;1.98;;;4.70;99.90;;;;;;5063378;28;20581;-50
2021/10/16 04:59:24;;;;;;;8.65;2.25;;;4.80;99.90;;;;;;5064248;28;20032;-50
2021/10/16 05:01:49;;;;;;;12.75;3.97;;;4.80;99.90;;;;;;5063789;28;20037;-46
2021/10/16 05:04:15;;;;;;;16.70;3.60;;;4.80;99.90;;;;;;5064640;28;20037;-49
2021/10/16 05:06:40;;;;;;;12.80;3.45;;;4.90;99.90;;;;;;5067207;28;20037;-48
2021/10/16 05:09:06;;;;;;;17.83;4.03;;;4.90;99.90;;;;;;5066247;28;20037;-52
2021/10/16 05:11:31;;;;;;;13.20;3.28;;;5.00;99.90;;;;;;5062702;28;20032;-50
2021/10/16 05:13:57;;;;;;;13.35;3.22;;;5.00;99.90;;;;;;5063503;28;20033;-49
2021/10/16 05:16:22;;;;;;;9.07;2.83;;;5.00;99.90;;;;;;5065939;28;20491;-50
2021/10/16 05:18:48;;;;;;;12.30;3.20;;;5.10;99.90;;;;;;5066828;28;20051;-54
2021/10/16 05:21:13;;;;;;;12.38;2.95;;;5.10;99.90;;;;;;5065021;28;20079;-51
2021/10/16 05:23:39;;;;;;;8.55;2.65;;;5.10;99.90;;;;;;5068640;28;20040;-53
2021/10/16 05:26:05;;;;;;;9.95;2.75;;;5.20;99.90;;;;;;5062310;28;20048;-53
2021/10/16 05:28:30;;;;;;;12.57;3.10;;;5.20;99.90;;;;;;5062953;28;20126;-50
2021/10/16 05:30:56;;;;;;;8.48;2.50;;;5.20;99.90;;;;;;5063355;28;20032;-52
2021/10/16 05:33:22;;;;;;;7.32;2.65;;;5.30;99.90;;;;;;5064209;28;20020;-51
2021/10/16 05:35:47;;;;;;;10.68;2.45;;;5.30;99.90;;;;;;5062205;28;20028;-50
2021/10/16 05:38:13;;;;;;;9.20;2.53;;;5.30;99.90;;;;;;5065108;28;20115;-47
2021/10/16 05:40:40;;;;;;;14.93;2.90;;;5.30;99.90;;;;;;5066252;28;20025;-50
2021/10/16 05:43:06;;;;;;;8.65;2.42;;;5.30;99.90;;;;;;5054653;28;20028;-47
2021/10/16 05:45:32;;;;;;;7.65;2.72;;;5.40;99.90;;;;;;5064530;28;20078;-47
2021/10/16 05:47:57;;;;;;;7.82;3.50;;;5.40;99.90;;;;;;5066210;28;20032;-48
2021/10/16 05:50:23;;;;;;;11.65;4.40;;;5.40;99.90;;;;;;5063250;28;20056;-51
2021/10/16 05:52:48;;;;;;;11.65;3.60;;;5.40;99.90;;;;;;5064019;28;20468;-48
2021/10/16 05:55:14;;;;;;;8.45;3.40;;;5.50;99.90;;;;;;5063882;28;20033;-49
2021/10/16 05:57:39;;;;;;;9.82;3.70;;;5.50;99.90;;;;;;5065366;28;20047;-48
2021/10/16 06:00:06;;;;;;;13.68;3.63;;;5.50;99.90;;;;;;5065630;28;20036;-47
2021/10/16 06:02:31;;;;;;;7.30;2.78;;;5.50;99.90;;;;;;5065133;28;20463;-48
2021/10/16 06:04:57;;;;;;;11.90;3.35;;;5.50;99.90;;;;;;5059803;28;20032;-50
2021/10/16 06:07:22;;;;;;;8.02;3.10;;;5.60;99.90;;;;;;5068832;28;20044;-45
2021/10/16 06:09:49;;;;;;;6.80;2.78;;;5.50;99.90;;;;;;5061774;28;20023;-49
2021/10/16 06:12:14;;;;;;;8.75;3.30;;;5.60;99.90;;;;;;5063120;28;20111;-48
2021/10/16 06:14:40;;;;;;;11.25;3.25;;;5.60;99.90;;;;;;5062568;28;20448;-52
2021/10/16 06:17:05;;;;;;;8.15;2.80;;;5.60;99.90;;;;;;5062336;28;20480;-49
2021/10/16 06:19:31;;;;;;;12.60;2.97;;;5.70;99.90;;;;;;5065687;28;20035;-50
2021/10/16 06:21:58;;;;;;;4.57;2.22;;;5.80;99.90;;;;;;5065785;28;20059;-48
2021/10/16 06:24:23;;;;;;;9.73;2.33;;;5.90;99.90;;;;;;5062774;28;20146;-50
2021/10/16 06:26:49;;;;;;;12.00;2.50;;;6.00;99.90;;;;;;5061259;28;20055;-47
2021/10/16 06:29:15;;;;;;;13.20;3.50;;;6.20;99.90;;;;;;5063422;28;20030;-45
2021/10/16 06:31:40;;;;;;;4.47;2.25;;;6.50;99.90;;;;;;5061711;28;20021;-49
2021/10/16 06:34:07;;;;;;;10.70;2.97;;;6.70;99.90;;;;;;5062011;28;20132;-46
2021/10/16 06:36:33;;;;;;;6.53;2.50;;;6.80;99.90;;;;;;5065456;28;20021;-50
2021/10/16 06:38:58;;;;;;;15.80;3.35;;;6.90;99.90;;;;;;5065383;28;20392;-49
2021/10/16 06:41:24;;;;;;;11.27;3.28;;;6.90;99.90;;;;;;5062639;28;20044;-48
2021/10/16 06:43:49;;;;;;;8.95;2.70;;;7.00;99.90;;;;;;5063911;28;20041;-48
2021/10/16 06:46:15;;;;;;;9.05;3.55;;;7.00;99.90;;;;;;5063036;28;20061;-48
2021/10/16 06:48:40;;;;;;;7.05;2.70;;;7.00;99.90;;;;;;5062855;28;20418;-50
2021/10/16 06:51:06;;;;;;;10.23;3.40;;;7.10;99.90;;;;;;5061051;28;20057;-52
2021/10/16 06:53:31;;;;;;;9.82;3.55;;;7.10;99.90;;;;;;5065210;28;20025;-52
2021/10/16 06:55:57;;;;;;;17.35;3.85;;;7.20;99.90;;;;;;5064109;28;20036;-49
2021/10/16 06:58:22;;;;;;;8.55;2.22;;;7.20;99.90;;;;;;5063295;28;20040;-51
2021/10/16 07:00:48;;;;;;;9.07;3.15;;;7.20;99.90;;;;;;5065010;28;20375;-49
2021/10/16 07:03:16;;;;;;;10.85;3.28;;;7.30;99.90;;;;;;5054342;28;20033;-50
2021/10/16 07:05:43;;;;;;;14.05;3.10;;;7.50;99.90;;;;;;5053114;28;20033;-49
2021/10/16 07:08:08;;;;;;;8.07;3.38;;;7.60;99.90;;;;;;5052687;28;20380;-50
2021/10/16 07:10:34;;;;;;;10.93;3.33;;;7.70;99.90;;;;;;5053066;28;20031;-48
2021/10/16 07:13:03;;;;;;;11.68;4.13;;;7.80;99.90;;;;;;5051297;28;20032;-50
2021/10/16 07:15:29;;;;;;;9.65;2.92;;;8.00;99.90;;;;;;5053152;28;20111;-50
2021/10/16 07:17:55;;;;;;;10.25;2.70;;;8.30;99.90;;;;;;5052353;28;20107;-50
2021/10/16 07:20:20;;;;;;;10.60;2.80;;;8.50;99.90;;;;;;5052607;28;20443;-48
2021/10/16 07:22:46;;;;;;;8.82;2.40;;;8.70;99.90;;;;;;5052768;28;20375;-49
2021/10/16 07:25:11;;;;;;;6.68;2.65;;;8.90;99.90;;;;;;5052524;28;20040;-46
2021/10/16 07:27:37;;;;;;;7.05;2.00;;;9.10;99.90;;;;;;5051193;28;20065;-48
2021/10/16 07:30:04;;;;;;;8.77;2.03;;;9.70;99.90;;;;;;5052456;28;20028;-48
2021/10/16 07:32:29;;;;;;;7.13;2.10;;;10.40;99.90;;;;;;5045844;28;20051;-48
2021/10/16 07:34:55;;;;;;;7.40;1.92;;;10.80;99.90;;;;;;5060893;28;20446;-53
2021/10/16 07:37:21;;;;;;;5.95;1.60;;;11.10;99.90;;;;;;5061890;28;20443;-51
2021/10/16 07:39:46;;;;;;;6.53;1.77;;;11.40;99.90;;;;;;5060911;28;20044;-47
2021/10/16 07:42:12;;;;;;;4.28;1.65;;;11.70;99.90;;;;;;5054742;28;20025;-53
2021/10/16 07:44:38;;;;;;;4.50;1.70;;;12.10;99.90;;;;;;5064234;28;20029;-49
2021/10/16 07:47:04;;;;;;;4.07;1.55;;;12.50;99.90;;;;;;5069735;28;20549;-51
2021/10/16 07:49:29;;;;;;;3.65;1.30;;;13.00;99.90;;;;;;5064600;28;20538;-54
2021/10/16 07:51:55;;;;;;;4.78;2.05;;;13.40;99.90;;;;;;5062084;28;20025;-55
2021/10/16 07:54:21;;;;;;;5.88;1.98;;;13.70;99.90;;;;;;5061545;28;20041;-51
2021/10/16 07:56:46;;;;;;;7.82;1.77;;;14.10;99.90;;;;;;5059783;28;20024;-50
2021/10/16 07:59:12;;;;;;;3.60;1.40;;;14.40;99.90;;;;;;5053534;28;20381;-50
2021/10/16 08:01:37;;;;;;;3.78;1.52;;;14.90;99.90;;;;;;5063025;28;20461;-54
2021/10/16 08:04:03;;;;;;;5.50;1.63;;;15.40;99.90;;;;;;5062363;28;20060;-55
2021/10/16 08:06:29;;;;;;;3.08;1.27;;;15.80;99.90;;;;;;5054590;28;20029;-52
2021/10/16 08:08:54;;;;;;;7.70;1.60;;;16.20;99.90;;;;;;5060530;28;20029;-51
2021/10/16 08:11:20;;;;;;;4.25;1.75;;;16.40;99.90;;;;;;5055960;28;20100;-48
2021/10/16 08:13:45;;;;;;;6.88;1.60;;;16.50;99.90;;;;;;5064011;28;20028;-48
2021/10/16 08:16:11;;;;;;;3.33;1.80;;;16.20;99.90;;;;;;5067901;28;20477;-51
2021/10/16 08:18:36;;;;;;;7.05;1.90;;;16.00;99.90;;;;;;5057934;28;20064;-49
2021/10/16 08:21:02;;;;;;;7.82;1.90;;;15.70;99.90;;;;;;5063612;28;20036;-52
2021/10/16 08:23:28;;;;;;;4.55;2.10;;;15.40;99.90;;;;;;5056899;28;20081;-51
2021/10/16 08:25:53;;;;;;;3.83;1.58;;;15.20;99.90;;;;;;5062909;28;20491;-51
2021/10/16 08:28:20;;;;;;;7.18;2.22;;;15.10;99.90;;;;;;5056603;28;20068;-53
2021/10/16 08:30:50;;;;;;;3.65;1.83;;;14.90;99.90;;;;;;5061832;28;20052;-50
2021/10/16 08:33:20;;;;;;;5.78;1.90;;;14.80;99.90;;;;;;5061768;28;20036;-48
2021/10/16 08:35:46;;;;;;;4.43;1.63;;;14.70;99.90;;;;;;5064799;28;20036;-46
2021/10/16 08:38:11;;;;;;;7.05;2.10;;;14.50;99.90;;;;;;5061916;28;20025;-51
2021/10/16 08:40:37;;;;;;;8.10;2.72;;;14.40;99.90;;;;;;5063141;28;20040;-54
2021/10/16 08:43:04;;;;;;;4.57;1.80;;;14.30;99.90;;;;;;5056377;28;20044;-49
2021/10/16 08:45:31;;;;;;;4.95;1.95;;;14.20;99.90;;;;;;5052658;28;20025;-51
2021/10/16 08:47:56;;;;;;;5.95;1.80;;;14.10;99.90;;;;;;5066430;28;20420;-55
2021/10/16 08:50:26;;;;;;;5.07;2.03;;;14.10;99.90;;;;;;5065246;28;20039;-54
2021/10/16 08:52:51;;;;;;;5.43;2.00;;;14.10;99.90;;;;;;5041091;28;20504;-47
2021/10/16 08:55:17;;;;;;;8.10;2.15;;;14.10;99.90;;;;;;5044132;28;20071;-50
2021/10/16 08:57:42;;;;;;;6.30;2.13;;;14.20;99.90;;;;;;5062021;28;20055;-48
2021/10/16 09:00:37;;;;;;;7.93;2.20;;;14.20;99.90;;;;;;5072060;28;20036;-51
2021/10/16 09:03:22;;;;;;;12.70;2.70;;;14.20;99.90;;;;;;5072272;28;20032;-48
2021/10/16 09:06:04;;;;;;;19.90;3.20;;;14.10;99.90;;;;;;5051766;28;20032;-57
2021/10/16 09:08:42;;;;;;;9.27;2.25;;;14.20;99.90;;;;;;5065144;28;20041;-49
2021/10/16 09:11:25;;;;;;;7.15;2.30;;;14.10;99.90;;;;;;5053999;28;20025;-49
2021/10/16 09:14:06;;;;;;;9.82;2.42;;;14.10;99.90;;;;;;5059171;28;20025;-51
2021/10/16 09:16:59;;;;;;;8.40;2.20;;;13.90;99.90;;;;;;5068128;28;20480;-50
2021/10/16 09:19:32;;;;;;;7.03;2.20;;;13.80;99.90;;;;;;5067250;28;20048;-52
2021/10/16 09:22:12;;;;;;;6.53;2.28;;;13.70;99.90;;;;;;5055681;28;20455;-49
2021/10/16 09:24:43;;;;;;;6.78;1.85;;;13.60;99.90;;;;;;5055486;28;20083;-49
2021/10/16 09:27:12;;;;;;;5.13;2.03;;;13.60;99.90;;;;;;5055424;28;20040;-51
2021/10/16 09:29:43;;;;;;;7.20;2.45;;;13.70;99.90;;;;;;5066431;28;20685;-53
2021/10/16 09:32:12;;;;;;;5.75;2.20;;;13.80;99.90;;;;;;5055645;28;20384;-50
2021/10/16 09:34:39;;;;;;;8.18;2.10;;;14.00;99.90;;;;;;5061645;28;20021;-53
2021/10/16 09:37:10;;;;;;;7.00;2.00;;;14.20;99.90;;;;;;5056321;28;20061;-52
2021/10/16 09:39:39;;;;;;;10.30;2.53;;;14.50;99.90;;;;;;5055241;28;20111;-50
2021/10/16 09:42:07;;;;;;;2.95;1.40;;;14.60;99.90;;;;;;5053877;28;20025;-49
2021/10/16 09:44:36;;;;;;;6.10;2.05;;;14.70;99.90;;;;;;5055139;28;20029;-49
2021/10/16 09:47:18;;;;;;;4.57;2.22;;;14.80;99.90;;;;;;5055120;28;20110;-52
2021/10/16 09:49:45;;;;;;;6.38;2.40;;;14.80;99.90;;;;;;5060339;28;20031;-50
2021/10/16 09:52:13;;;;;;;5.65;2.28;;;14.70;99.90;;;;;;5074968;28;20021;-47
2021/10/16 09:54:41;;;;;;;6.03;2.28;;;14.70;99.90;;;;;;5074968;28;20026;-46
2021/10/16 09:57:09;;;;;;;5.05;2.08;;;14.60;99.90;;;;;;5073618;28;20436;-49
2021/10/16 09:59:37;;;;;;;10.30;2.50;;;14.60;99.90;;;;;;5071505;28;20040;-48
2021/10/16 10:02:04;;;;;;;5.70;1.80;;;14.50;99.90;;;;;;5071021;28;20111;-47
2021/10/16 10:04:39;;;;;;;7.82;1.67;;;14.60;99.90;;;;;;5051847;28;20028;-53
2021/10/16 10:07:05;;;;;;;8.30;2.28;;;14.70;99.90;;;;;;5052156;28;20053;-51
2021/10/16 10:09:32;;;;;;;5.47;2.28;;;14.80;99.90;;;;;;5057161;28;20061;-52
2021/10/16 10:11:59;;;;;;;7.72;1.83;;;14.90;99.90;;;;;;5060916;28;20056;-50
2021/10/16 10:14:25;;;;;;;3.78;1.83;;;14.90;99.90;;;;;;5065312;28;20047;-51
2021/10/16 10:16:53;;;;;;;4.10;1.73;;;15.00;99.90;;;;;;5066820;28;20520;-49
2021/10/16 10:19:21;;;;;;;4.47;1.58;;;15.00;99.90;;;;;;5057897;28;20029;-54
2021/10/16 10:21:47;;;;;;;6.68;1.40;;;15.00;99.90;;;;;;5060562;28;20041;-51
2021/10/16 10:24:13;;;;;;;5.47;1.58;;;15.10;99.90;;;;;;5046271;28;20480;-52
2021/10/16 10:26:44;;;;;;;4.43;1.45;;;15.10;99.90;;;;;;5060986;28;20040;-49
2021/10/16 10:29:17;;;;;;;6.25;2.08;;;15.10;99.90;;;;;;5041710;28;20036;-50
2021/10/16 10:31:53;;;;;;;6.88;1.77;;;15.20;99.90;;;;;;5058137;28;20087;-51
2021/10/16 10:34:29;;;;;;;6.72;2.15;;;15.40;99.90;;;;;;5052794;28;20017;-49
2021/10/16 10:36:56;;;;;;;;;;;15.30;99.90;;;;;;5055547;28;20025;-51
2021/10/16 10:39:33;;;;;;;6.80;1.42;;;15.30;97.50;;;;;;5054185;28;20330;-51
2021/10/16 10:42:14;;;;;;;3.92;1.00;;;15.20;99.90;;;;;;5060768;28;20039;-51
2021/10/16 10:44:48;;;;;;;4.40;1.58;;;15.10;99.90;;;;;;5061397;28;20028;-50
2021/10/16 10:47:23;;;;;;;3.45;1.30;;;14.90;99.90;;;;;;5073939;28;20040;-51
2021/10/16 10:49:50;;;;;;;3.80;1.33;;;14.80;99.90;;;;;;5042518;28;20067;-47
2021/10/16 10:52:16;;;;;;;4.50;1.30;;;14.60;99.90;;;;;;5053973;28;20035;-50
2021/10/16 10:55:06;;;;;;;5.20;1.50;;;14.40;99.90;;;;;;5053807;28;20368;-49
2021/10/16 10:57:44;;;;;;;5.53;1.20;;;14.40;99.90;;;;;;5052619;28;20031;-52
2021/10/16 11:00:11;;;;;;;3.83;1.20;;;14.50;99.90;;;;;;5053779;28;20104;-50
2021/10/16 11:02:37;;;;;;;3.53;1.40;;;14.50;99.90;;;;;;5053682;28;20444;-48
2021/10/16 11:05:06;;;;;;;7.70;1.58;;;14.60;99.90;;;;;;5053764;28;20255;-52
2021/10/16 11:07:41;;;;;;;3.78;1.25;;;14.60;99.90;;;;;;5053370;28;20182;-51
2021/10/16 11:10:08;;;;;;;1.35;0.70;;;14.70;99.90;;;;;;5053640;28;20021;-48
2021/10/16 11:12:39;;;;;;;2.60;1.00;;;14.60;99.90;;;;;;5052223;28;20029;-50
2021/10/16 11:15:06;;;;;;;3.55;1.17;;;14.50;99.90;;;;;;5053542;28;20546;-48
2021/10/16 11:17:35;;;;;;;2.20;1.10;;;14.40;99.90;;;;;;5053405;28;20032;-48
2021/10/16 11:20:01;;;;;;;2.55;1.17;;;14.40;99.90;;;;;;5053417;28;20048;-50
2021/10/16 11:22:43;;;;;;;4.45;1.00;;;14.30;99.90;;;;;;5053354;28;20025;-50
2021/10/16 11:25:17;;;;;;;3.38;1.25;;;14.30;97.80;;;;;;5053446;28;20033;-48
2021/10/16 11:27:57;;;;;;;4.38;1.13;;;14.30;99.90;;;;;;5051888;28;20021;-50
2021/10/16 11:30:22;;;;;;;2.78;1.05;;;14.30;99.90;;;;;;5053112;28;20434;-52
2021/10/16 11:32:48;;;;;;;3.83;1.27;;;14.20;99.90;;;;;;5053206;28;20031;-51
2021/10/16 11:35:14;;;;;;;3.00;0.90;;;14.20;99.90;;;;;;5053133;28;20059;-48
2021/10/16 11:37:47;;;;;;;3.20;1.02;;;14.10;99.90;;;;;;5052742;28;20035;-49
2021/10/16 11:40:17;;;;;;;4.18;1.30;;;14.00;99.90;;;;;;5053106;28;20033;-48
2021/10/16 11:42:45;;;;;;;2.20;1.52;;;14.00;99.90;;;;;;5051755;28;20065;-53
2021/10/16 11:45:14;;;;;;;3.88;1.15;;;13.90;99.90;;;;;;5053024;28;20118;-50
2021/10/16 11:47:46;;;;;;;6.93;1.70;;;14.00;99.90;;;;;;5052842;28;20025;-49
2021/10/16 11:50:17;;;;;;;2.30;0.85;;;14.00;99.70;;;;;;5053188;28;20021;-50
2021/10/16 11:52:45;;;;;;;3.83;1.00;;;14.10;98.30;;;;;;5052884;28;20028;-52
2021/10/16 11:55:15;;;;;;;3.28;0.63;;;14.30;99.90;;;;;;5052923;28;20025;-48
2021/10/16 11:57:41;;;;;;;5.35;1.10;;;14.40;99.50;;;;;;5051475;28;20028;-50
2021/10/16 12:00:22;;;;;;;2.83;1.00;;;14.40;99.40;;;;;;5052881;28;20376;-51
2021/10/16 12:02:48;;;;;;;6.68;1.30;;;14.40;95.20;;;;;;5052781;28;20033;-50
2021/10/16 12:05:18;;;;;;;3.65;1.00;;;14.30;97.60;;;;;;5052748;28;20052;-49
2021/10/16 12:07:45;;;;;;;2.92;1.10;;;14.30;96.80;;;;;;5052422;28;20048;-54
2021/10/16 12:10:24;;;;;;;3.03;1.10;;;14.30;98.10;;;;;;5052593;28;20028;-49
2021/10/16 12:13:07;;;;;;;3.92;1.45;;;14.30;98.30;;;;;;5051212;28;20021;-51
2021/10/16 12:15:37;;;;;;;2.65;0.98;;;14.20;95.00;;;;;;5052626;28;20018;-51
2021/10/16 12:18:03;;;;;;;2.25;0.88;;;14.10;98.10;;;;;;5052776;28;20052;-53
2021/10/16 12:20:41;;;;;;;3.47;1.20;;;14.10;98.20;;;;;;5052534;28;20056;-49
2021/10/16 12:23:06;;;;;;;6.53;1.30;;;14.20;98.80;;;;;;5052567;28;20025;-48
2021/10/16 12:25:49;;;;;;;2.45;1.13;;;14.10;97.30;;;;;;5051668;28;20025;-49
2021/10/16 12:28:15;;;;;;;6.90;1.55;;;14.10;96.60;;;;;;5052479;28;20373;-49
2021/10/16 12:31:01;;;;;;;2.83;1.08;;;13.90;97.80;;;;;;5052460;28;20129;-51
2021/10/16 12:33:26;;;;;;;4.53;1.02;;;13.80;97.00;;;;;;5052570;28;20041;-48
2021/10/16 12:36:00;;;;;;;6.93;1.20;;;13.70;98.00;;;;;;5052436;28;20074;-49
2021/10/16 12:38:26;;;;;;;3.30;1.23;;;13.60;97.90;;;;;;5052453;28;20116;-48
2021/10/16 12:40:52;;;;;;;2.55;1.15;;;13.50;98.40;;;;;;5050988;28;20593;-47
2021/10/16 12:43:27;;;;;;;4.03;1.10;;;13.40;99.70;;;;;;5052244;28;20108;-48
2021/10/16 12:45:53;;;;;;;3.08;1.02;;;13.50;99.00;;;;;;5052213;28;20056;-49
2021/10/16 12:48:28;;;;;;;3.80;0.98;;;13.40;99.90;;;;;;5052291;28;20071;-49
2021/10/16 12:50:58;;;;;;;5.55;1.27;;;13.50;99.70;;;;;;5055146;28;20032;-49
2021/10/16 12:53:25;;;;;;;2.97;0.90;;;13.50;97.70;;;;;;5056239;28;20033;-49